Time;durP1;ratioP1;P1;durP2;ratioP2;P2;SDS_P1;SDS_P2;PMS_P1;PMS_P2;Temp;Humidity;BMP_temperature;BMP_pressure;BME280_temperature;BME280_humidity;BME280_pressure;Samples;Min_cycle;Max_cycle;Signal;HPM_P1;HPM_P2
2022/01/06 00:02:20;;;;;;;1.40;0.50;;;;;;;-0.92;65.53;100243.28;4952756;28;20077;-76
2022/01/06 00:04:46;;;;;;;3.58;0.88;;;;;;;-0.92;65.33;100245.94;4939001;29;20069;-76
2022/01/06 00:07:11;;;;;;;1.70;0.80;;;;;;;-0.91;65.65;100260.16;4935192;29;20384;-75
2022/01/06 00:09:37;;;;;;;3.35;0.98;;;;;;;-0.92;65.28;100264.69;4941743;28;20030;-75
2022/01/06 00:12:02;;;;;;;0.52;0.30;;;;;;;-0.93;65.00;100260.38;4966230;28;20365;-75
2022/01/06 00:18:08;;;;;;;0.38;0.38;;;;;;;-0.94;65.85;100248.00;4945888;28;20186;-75
2022/01/06 00:25:36;;;;;;;1.58;0.47;;;;;;;-1.03;66.11;100278.72;4945801;28;20445;-76
2022/01/06 00:28:01;;;;;;;2.30;0.65;;;;;;;-1.04;66.75;100281.59;4952733;28;20035;-75
2022/01/06 00:30:28;;;;;;;1.65;0.50;;;;;;;-1.06;66.58;100275.66;4954393;28;20027;-75
2022/01/06 00:32:53;;;;;;;1.45;0.30;;;;;;;-1.08;66.50;100291.88;4919762;29;20038;-74
2022/01/06 00:35:19;;;;;;;0.40;0.38;;;;;;;-1.08;66.09;100286.53;4944068;28;20030;-74
2022/01/06 00:37:44;;;;;;;2.17;0.52;;;;;;;-1.07;66.72;100303.41;4960124;28;20031;-76
2022/01/06 00:40:10;;;;;;;3.25;1.05;;;;;;;-1.09;66.83;100302.78;4958870;28;20029;-74
2022/01/06 00:42:35;;;;;;;0.32;0.32;;;;;;;-1.09;66.58;100292.94;4958589;28;20031;-75
2022/01/06 00:45:01;;;;;;;1.02;0.43;;;;;;;-1.07;66.68;100298.88;4959507;28;20029;-76
2022/01/06 00:47:26;;;;;;;1.38;0.70;;;;;;;-1.08;66.48;100305.25;4941681;29;20023;-77
2022/01/06 00:49:51;;;;;;;0.82;0.50;;;;;;;-1.10;66.65;100307.31;4957697;28;20083;-74
2022/01/06 00:52:17;;;;;;;1.90;0.57;;;;;;;-1.12;67.01;100312.91;4962921;28;20490;-75
2022/01/06 00:54:42;;;;;;;0.52;0.40;;;;;;;-1.11;67.21;100321.75;4956901;28;20050;-75
2022/01/06 00:57:08;;;;;;;1.92;0.68;;;;;;;-1.10;66.83;100319.88;4956339;28;20345;-75
2022/01/06 00:59:33;;;;;;;2.17;0.60;;;;;;;-1.09;66.65;100327.72;4956338;28;20041;-75
2022/01/06 01:01:58;;;;;;;0.47;0.35;;;;;;;-1.09;66.26;100322.34;4945723;28;20030;-76
2022/01/06 01:04:24;;;;;;;0.98;0.50;;;;;;;-1.10;66.39;100331.41;4952928;28;20481;-75
2022/01/06 01:06:49;;;;;;;2.33;0.50;;;;;;;-1.13;66.55;100337.16;4956162;28;20043;-75
2022/01/06 01:09:15;;;;;;;0.50;0.32;;;;;;;-1.14;66.15;100335.53;4959254;28;20035;-74
2022/01/06 01:11:40;;;;;;;1.33;0.60;;;;;;;-1.14;66.23;100346.22;4954843;28;20039;-75
2022/01/06 01:14:22;;;;;;;0.98;0.70;;;;;;;-1.16;66.22;100359.81;4964070;28;20035;-75
2022/01/06 01:16:55;;;;;;;2.90;0.47;;;;;;;-1.17;66.55;100347.47;4962947;28;20050;-75
2022/01/06 01:19:20;;;;;;;0.98;0.35;;;;;;;-1.17;65.80;100347.47;4959347;28;20037;-75
2022/01/06 01:21:46;;;;;;;5.90;0.77;;;;;;;-1.19;66.19;100365.56;4938920;29;20400;-75
2022/01/06 01:24:11;;;;;;;1.45;0.50;;;;;;;-1.20;66.12;100365.75;4938043;29;20031;-75
2022/01/06 01:26:36;;;;;;;3.45;0.40;;;;;;;-1.21;65.88;100367.63;4957938;28;20037;-75
2022/01/06 01:29:02;;;;;;;1.10;0.50;;;;;;;-1.21;65.78;100377.50;4960337;28;20019;-75
2022/01/06 01:31:35;;;;;;;0.88;0.40;;;;;;;-1.23;66.37;100374.19;4946719;28;20027;-75
2022/01/06 01:34:07;;;;;;;0.75;0.43;;;;;;;-1.23;66.14;100382.22;4972194;28;20404;-75
2022/01/06 01:36:33;;;;;;;3.75;0.47;;;;;;;-1.22;66.47;100386.56;4942306;28;20500;-75
2022/01/06 01:38:58;;;;;;;4.45;1.13;;;;;;;-1.20;66.55;100379.13;4963819;28;20038;-76
2022/01/06 01:41:24;;;;;;;1.20;0.43;;;;;;;-1.18;66.63;100380.56;4960246;28;20037;-75
2022/01/06 01:43:50;;;;;;;1.80;0.50;;;;;;;-1.17;66.49;100382.25;4943126;29;20027;-74
2022/01/06 01:46:18;;;;;;;3.58;0.77;;;;;;;-1.15;66.17;100382.88;4965536;28;20030;-74
2022/01/06 01:48:49;;;;;;;2.15;0.50;;;;;;;-1.14;66.18;100394.38;4957216;28;20022;-75
2022/01/06 01:51:14;;;;;;;2.20;0.70;;;;;;;-1.13;66.25;100398.69;4964974;28;20038;-75
2022/01/06 01:53:39;;;;;;;1.42;0.50;;;;;;;-1.10;65.94;100406.28;4964020;28;20384;-76
2022/01/06 01:56:06;;;;;;;1.35;0.20;;;;;;;-1.07;66.21;100407.75;4955514;28;20035;-75
2022/01/06 01:58:33;;;;;;;1.55;0.50;;;;;;;-1.07;66.10;100426.47;4923363;28;20043;-76
2022/01/06 02:00:58;;;;;;;3.40;0.50;;;;;;;-1.08;66.00;100422.16;4957647;28;20473;-76
2022/01/06 02:03:23;;;;;;;0.57;0.50;;;;;;;-1.09;66.14;100429.38;4939567;29;20068;-75
2022/01/06 02:05:49;;;;;;;1.17;0.63;;;;;;;-1.12;66.03;100435.94;4954942;28;20035;-76
2022/01/06 02:08:14;;;;;;;4.85;0.63;;;;;;;-1.13;66.67;100460.22;4953208;28;20421;-76
2022/01/06 02:10:40;;;;;;;3.58;0.70;;;;;;;-1.16;67.04;100466.78;4936876;29;20035;-75
2022/01/06 02:13:05;;;;;;;2.72;0.30;;;;;;;-1.18;67.38;100454.66;4936953;29;20027;-75
2022/01/06 02:15:30;;;;;;;0.47;0.28;;;;;;;-1.17;67.14;100454.44;4954000;28;20046;-76
2022/01/06 02:17:56;;;;;;;2.47;0.93;;;;;;;-1.15;66.08;100456.91;4926089;28;20031;-76
2022/01/06 02:20:22;;;;;;;0.45;0.30;;;;;;;-1.15;66.82;100448.88;4954269;28;20023;-75
2022/01/06 02:22:47;;;;;;;1.67;0.40;;;;;;;-1.15;66.58;100467.59;4954987;28;20058;-76
2022/01/06 02:25:15;;;;;;;3.33;0.98;;;;;;;-1.17;66.92;100475.03;4952922;28;20468;-76
2022/01/06 02:27:42;;;;;;;1.35;0.40;;;;;;;-1.19;67.43;100467.19;4936390;29;20078;-75
2022/01/06 02:30:07;;;;;;;2.30;0.40;;;;;;;-1.19;67.24;100472.56;4953789;28;20027;-75
2022/01/06 02:32:33;;;;;;;4.00;0.50;;;;;;;-1.18;67.05;100500.13;4921716;29;20037;-76
2022/01/06 02:35:03;;;;;;;1.38;0.50;;;;;;;-1.18;67.16;100502.78;4953736;28;20041;-75
2022/01/06 02:37:28;;;;;;;2.72;1.17;;;;;;;-1.18;67.51;100521.50;4938021;29;20031;-76
2022/01/06 02:39:54;;;;;;;1.00;0.63;;;;;;;-1.17;67.55;100528.53;4935016;28;20360;-75
2022/01/06 02:42:19;;;;;;;1.77;0.40;;;;;;;-1.18;67.41;100526.88;4955247;28;20037;-74
2022/01/06 02:44:44;;;;;;;2.50;0.80;;;;;;;-1.18;67.50;100526.88;4935707;29;20027;-75
2022/01/06 02:47:10;;;;;;;1.55;0.30;;;;;;;-1.19;67.42;100533.25;4954446;28;20077;-75
2022/01/06 02:49:35;;;;;;;2.97;0.70;;;;;;;-1.20;67.49;100535.09;4953191;28;20124;-75
2022/01/06 02:52:00;;;;;;;0.80;0.50;;;;;;;-1.19;67.58;100546.63;4954405;28;20030;-75
2022/01/06 02:54:26;;;;;;;4.93;1.20;;;;;;;-1.20;67.57;100535.09;4937124;29;20354;-76
2022/01/06 02:56:52;;;;;;;1.48;0.50;;;;;;;-1.19;67.47;100542.09;4952600;28;20027;-75
2022/01/06 02:59:18;;;;;;;1.23;0.40;;;;;;;-1.20;67.49;100539.59;4954776;28;20047;-76
2022/01/06 03:01:43;;;;;;;2.13;0.60;;;;;;;-1.20;67.67;100543.13;4916718;29;20031;-76
2022/01/06 03:04:09;;;;;;;4.15;0.50;;;;;;;-1.20;67.44;100544.97;4936805;29;20064;-76
2022/01/06 03:06:35;;;;;;;4.25;0.95;;;;;;;-1.22;67.70;100525.63;4934626;29;20106;-74
2022/01/06 03:09:00;;;;;;;1.17;0.47;;;;;;;-1.21;67.64;100537.97;4937546;29;20037;-76
2022/01/06 03:11:26;;;;;;;2.55;0.68;;;;;;;-1.21;67.53;100538.78;4932201;29;20035;-75
2022/01/06 03:13:55;;;;;;;1.30;0.40;;;;;;;-1.21;67.41;100541.47;4954091;28;20031;-75
2022/01/06 03:16:20;;;;;;;0.52;0.30;;;;;;;-1.19;67.45;100546.63;4952453;28;20082;-75
2022/01/06 03:18:46;;;;;;;1.60;0.70;;;;;;;-1.19;66.84;100549.31;4937596;29;20023;-75
2022/01/06 03:21:11;;;;;;;1.75;0.50;;;;;;;-1.20;67.07;100544.97;4933706;28;20585;-76
2022/01/06 03:23:37;;;;;;;3.90;0.88;;;;;;;-1.21;66.99;100548.66;4954381;28;20027;-76
2022/01/06 03:26:02;;;;;;;0.47;0.28;;;;;;;-1.23;67.41;100550.72;4935505;29;20035;-76
2022/01/06 03:28:28;;;;;;;2.97;0.50;;;;;;;-1.25;67.15;100556.28;4935782;29;20031;-76
2022/01/06 03:30:53;;;;;;;1.00;0.45;;;;;;;-1.25;67.19;100564.31;4953328;29;20027;-76
2022/01/06 03:33:18;;;;;;;1.63;0.80;;;;;;;-1.26;67.41;100561.81;4953897;28;20366;-76
2022/01/06 03:35:44;;;;;;;4.75;1.88;;;;;;;-1.27;67.50;100558.31;4948463;28;20034;-76
2022/01/06 03:38:09;;;;;;;2.58;0.50;;;;;;;-1.29;67.66;100563.03;4936848;28;20027;-76
2022/01/06 03:40:35;;;;;;;1.20;0.63;;;;;;;-1.31;67.81;100572.28;4952965;28;20027;-76
2022/01/06 03:43:00;;;;;;;3.38;0.60;;;;;;;-1.31;67.83;100569.63;4936963;29;20023;-77
2022/01/06 03:45:26;;;;;;;5.03;0.60;;;;;;;-1.32;68.05;100574.16;4951167;28;20043;-76
2022/01/06 03:47:51;;;;;;;1.02;0.50;;;;;;;-1.33;68.02;100577.84;4954266;28;20077;-76
2022/01/06 03:50:17;;;;;;;2.13;0.60;;;;;;;-1.32;68.14;100597.41;4950809;28;20050;-76
2022/01/06 03:52:42;;;;;;;1.05;0.93;;;;;;;-1.32;67.83;100584.84;4954187;28;20031;-76
2022/01/06 03:55:10;;;;;;;2.72;1.08;;;;;;;-1.35;68.23;100588.75;4949106;28;20531;-76
2022/01/06 03:57:35;;;;;;;2.03;0.45;;;;;;;-1.37;68.59;100598.00;4953488;28;20060;-76
2022/01/06 04:00:04;;;;;;;1.95;0.70;;;;;;;-1.39;68.46;100603.56;4935972;29;20353;-76
2022/01/06 04:02:29;;;;;;;3.80;0.88;;;;;;;-1.42;68.73;100608.44;4952667;28;20478;-76
2022/01/06 04:04:56;;;;;;;1.05;0.38;;;;;;;-1.44;68.67;100603.31;4952440;28;20066;-76
2022/01/06 04:07:21;;;;;;;3.33;0.75;;;;;;;-1.50;68.72;100609.47;4953470;28;20038;-76
2022/01/06 04:09:46;;;;;;;3.30;0.50;;;;;;;-1.50;68.97;100609.47;4931519;29;20394;-76
2022/01/06 04:12:12;;;;;;;1.58;0.80;;;;;;;-1.50;68.95;100609.47;4934376;29;20027;-77
2022/01/06 04:14:37;;;;;;;4.07;0.70;;;;;;;-1.49;69.23;100623.66;4950795;28;20023;-77
2022/01/06 04:17:07;;;;;;;2.63;0.63;;;;;;;-1.49;69.13;100627.16;4914392;29;20509;-76
2022/01/06 04:19:33;;;;;;;1.90;0.65;;;;;;;-1.50;69.30;100627.34;4938630;28;20035;-75
2022/01/06 04:21:58;;;;;;;3.17;0.85;;;;;;;-1.50;69.35;100635.34;4956224;28;20031;-76
2022/01/06 04:24:24;;;;;;;4.47;1.38;;;;;;;-1.53;69.53;100641.94;4957096;28;20031;-76
2022/01/06 04:26:49;;;;;;;2.65;1.08;;;;;;;-1.52;69.24;100648.94;4954456;28;20518;-76
2022/01/06 04:29:14;;;;;;;4.78;0.60;;;;;;;-1.52;69.12;100645.44;4940280;29;20027;-75
2022/01/06 04:31:40;;;;;;;0.85;0.43;;;;;;;-1.55;69.36;100644.00;4946485;28;20444;-75
2022/01/06 04:34:05;;;;;;;1.85;0.80;;;;;;;-1.54;69.19;100639.47;4957292;28;20034;-75
2022/01/06 04:36:30;;;;;;;2.72;0.68;;;;;;;-1.55;69.24;100644.00;4955747;28;20464;-75
2022/01/06 04:38:56;;;;;;;2.72;0.73;;;;;;;-1.56;69.51;100642.31;4956728;28;20027;-75
2022/01/06 04:41:21;;;;;;;2.67;0.47;;;;;;;-1.58;69.62;100633.69;4954653;28;20027;-74
2022/01/06 04:43:46;;;;;;;2.40;0.63;;;;;;;-1.58;69.38;100644.38;4956816;28;20089;-76
2022/01/06 04:46:12;;;;;;;3.97;0.77;;;;;;;-1.58;69.89;100649.75;4955754;28;20492;-75
2022/01/06 04:48:37;;;;;;;2.65;0.60;;;;;;;-1.55;70.03;100654.69;4939815;28;20027;-75
2022/01/06 04:51:03;;;;;;;3.03;0.70;;;;;;;-1.56;70.01;100661.03;4954194;28;20388;-75
2022/01/06 04:53:29;;;;;;;5.15;0.98;;;;;;;-1.55;70.20;100660.03;4939120;28;20081;-75
2022/01/06 04:55:56;;;;;;;3.40;0.80;;;;;;;-1.56;70.11;100658.38;4938608;29;20035;-74
2022/01/06 04:58:21;;;;;;;1.67;0.70;;;;;;;-1.55;70.33;100678.75;4937686;29;20043;-75
2022/01/06 05:00:46;;;;;;;0.73;0.47;;;;;;;-1.55;70.71;100678.75;4950618;29;20040;-75
2022/01/06 05:03:12;;;;;;;5.47;1.25;;;;;;;-1.57;70.52;100684.28;4933130;29;20027;-75
2022/01/06 05:05:37;;;;;;;2.72;0.82;;;;;;;-1.58;70.74;100689.84;4937737;29;20023;-74
2022/01/06 05:08:03;;;;;;;5.15;0.88;;;;;;;-1.60;70.73;100692.69;4955264;28;20041;-75
2022/01/06 05:10:28;;;;;;;2.83;0.50;;;;;;;-1.62;70.85;100692.06;4935712;29;20498;-75
2022/01/06 05:12:54;;;;;;;4.10;0.63;;;;;;;-1.65;70.78;100708.50;4951626;28;20027;-74
2022/01/06 05:15:19;;;;;;;4.80;2.03;;;;;;;-1.67;70.76;100709.69;4920850;29;20023;-75
2022/01/06 05:17:44;;;;;;;2.20;0.60;;;;;;;-1.70;71.01;100710.09;4938887;28;20094;-76
2022/01/06 05:20:10;;;;;;;5.50;0.77;;;;;;;-1.73;71.15;100715.84;4955902;28;20031;-76
2022/01/06 05:22:42;;;;;;;2.53;0.75;;;;;;;-1.78;71.08;100724.41;4932257;29;20117;-75
2022/01/06 05:25:08;;;;;;;2.42;0.60;;;;;;;-1.82;71.25;100723.16;4939773;29;20027;-75
2022/01/06 05:27:33;;;;;;;2.75;0.93;;;;;;;-1.86;71.42;100728.06;4955382;28;20039;-75
2022/01/06 05:29:58;;;;;;;1.98;0.65;;;;;;;-1.89;71.50;100728.44;4954411;28;20384;-76
2022/01/06 05:32:24;;;;;;;3.97;1.05;;;;;;;-1.92;71.36;100734.19;4953767;29;20028;-76
2022/01/06 05:34:49;;;;;;;2.58;0.60;;;;;;;-1.95;71.31;100723.88;4938452;28;20030;-75
2022/01/06 05:37:14;;;;;;;3.28;0.70;;;;;;;-1.95;71.66;100729.22;4937073;29;20038;-75
2022/01/06 05:39:40;;;;;;;4.00;0.80;;;;;;;-1.98;71.51;100726.94;4938783;29;20552;-76
2022/01/06 05:42:06;;;;;;;1.58;0.65;;;;;;;-1.98;71.72;100726.13;4953150;28;20469;-75
2022/01/06 05:44:34;;;;;;;2.28;0.80;;;;;;;-2.02;71.73;100737.19;4955209;28;20037;-75
2022/01/06 05:47:00;;;;;;;2.65;0.98;;;;;;;-2.04;71.99;100735.75;4938034;28;20023;-75
2022/01/06 05:49:25;;;;;;;0.93;0.40;;;;;;;-2.05;72.20;100734.06;4938498;29;20030;-75
2022/01/06 05:51:51;;;;;;;3.13;1.00;;;;;;;-2.04;72.22;100736.56;4953657;28;20019;-76
2022/01/06 05:54:16;;;;;;;3.00;0.65;;;;;;;-2.04;72.08;100735.75;4938476;29;20084;-75
2022/01/06 05:56:41;;;;;;;2.53;0.60;;;;;;;-2.03;72.40;100734.72;4947476;28;20086;-76
2022/01/06 05:59:07;;;;;;;4.57;1.00;;;;;;;-2.01;72.33;100743.38;4955446;28;20043;-76
2022/01/06 06:01:32;;;;;;;6.57;1.27;;;;;;;-2.02;72.30;100734.53;4954265;29;20033;-76
2022/01/06 06:03:58;;;;;;;2.13;0.60;;;;;;;-2.00;72.61;100742.34;4954867;28;20484;-75
2022/01/06 06:06:23;;;;;;;3.35;0.70;;;;;;;-1.96;72.42;100738.28;4954226;29;20476;-75
2022/01/06 06:08:48;;;;;;;1.08;0.70;;;;;;;-1.96;72.38;100748.97;4937513;29;20526;-75
2022/01/06 06:11:14;;;;;;;4.43;1.08;;;;;;;-1.96;72.66;100759.66;4953427;28;20031;-76
2022/01/06 06:13:39;;;;;;;3.05;1.40;;;;;;;-1.94;72.71;100756.75;4953603;28;20037;-75
2022/01/06 06:16:04;;;;;;;1.42;0.50;;;;;;;-1.93;72.69;100756.59;4953025;28;20106;-76
2022/01/06 06:18:30;;;;;;;3.45;0.73;;;;;;;-1.89;72.87;100754.34;4931224;29;20070;-76
2022/01/06 06:20:55;;;;;;;0.70;0.52;;;;;;;-1.86;72.77;100762.78;4953291;28;20094;-75
2022/01/06 06:23:20;;;;;;;1.10;0.50;;;;;;;-1.85;72.76;100761.78;4938183;29;20052;-76
2022/01/06 06:25:46;;;;;;;1.17;0.75;;;;;;;-1.83;72.69;100757.09;4952944;29;20035;-75
2022/01/06 06:28:11;;;;;;;2.22;0.50;;;;;;;-1.79;72.80;100765.53;4954910;28;20515;-76
2022/01/06 06:30:37;;;;;;;5.25;1.70;;;;;;;-1.78;72.97;100767.19;4953544;28;20476;-76
2022/01/06 06:33:02;;;;;;;5.18;1.38;;;;;;;-1.73;72.79;100774.63;4952945;28;20035;-75
2022/01/06 06:35:29;;;;;;;1.95;0.60;;;;;;;-1.74;72.79;100784.50;4954327;28;20050;-75
2022/01/06 06:37:54;;;;;;;2.92;0.68;;;;;;;-1.73;73.04;100774.63;4954601;28;20042;-76
2022/01/06 06:40:22;;;;;;;3.40;0.95;;;;;;;-1.73;72.97;100786.13;4937232;29;20019;-75
2022/01/06 06:42:48;;;;;;;1.02;0.60;;;;;;;-1.71;73.02;100785.97;4952875;28;20499;-75
2022/01/06 06:45:14;;;;;;;2.22;0.60;;;;;;;-1.71;72.84;100799.31;4932967;28;20027;-75
2022/01/06 06:47:39;;;;;;;2.25;0.70;;;;;;;-1.71;73.17;100783.28;4934016;29;20374;-75
2022/01/06 06:50:05;;;;;;;2.42;0.70;;;;;;;-1.70;72.99;100795.63;4953647;28;20033;-75
2022/01/06 06:52:31;;;;;;;2.72;0.60;;;;;;;-1.68;72.96;100804.28;4933005;29;20109;-76
2022/01/06 06:54:56;;;;;;;1.98;0.73;;;;;;;-1.69;73.02;100806.13;4954683;28;20039;-76
2022/01/06 06:57:21;;;;;;;2.35;1.10;;;;;;;-1.70;73.17;100817.00;4933645;29;20455;-75
2022/01/06 06:59:47;;;;;;;6.47;1.08;;;;;;;-1.74;73.16;100821.09;4953880;28;20086;-75
2022/01/06 07:02:12;;;;;;;4.43;1.08;;;;;;;-1.73;73.07;100823.56;4951501;28;20034;-75
2022/01/06 07:04:37;;;;;;;2.13;0.75;;;;;;;-1.72;72.83;100827.06;4954510;28;20029;-76
2022/01/06 07:07:03;;;;;;;5.55;0.98;;;;;;;-1.74;73.18;100837.13;4920238;29;20086;-76
2022/01/06 07:09:28;;;;;;;3.55;0.73;;;;;;;-1.78;73.29;100844.69;4937221;28;20054;-75
2022/01/06 07:11:53;;;;;;;1.90;0.52;;;;;;;-1.75;73.35;100846.16;4935131;29;20031;-75
2022/01/06 07:14:19;;;;;;;2.00;0.52;;;;;;;-1.74;73.36;100850.50;4954379;28;20038;-75
2022/01/06 07:16:44;;;;;;;1.73;0.70;;;;;;;-1.73;73.42;100854.81;4950303;28;20105;-75
2022/01/06 07:19:09;;;;;;;1.80;0.80;;;;;;;-1.74;73.62;100864.69;4954443;28;20033;-75
2022/01/06 07:21:35;;;;;;;1.52;0.70;;;;;;;-1.73;73.36;100870.84;4951936;28;20473;-76
2022/01/06 07:24:00;;;;;;;1.85;0.88;;;;;;;-1.74;73.31;100871.88;4954022;28;20041;-76
2022/01/06 07:26:26;;;;;;;2.72;0.70;;;;;;;-1.73;73.66;100876.19;4949895;28;20028;-76
2022/01/06 07:28:51;;;;;;;1.98;0.80;;;;;;;-1.74;73.32;100883.38;4934562;29;20039;-76
2022/01/06 07:31:16;;;;;;;2.17;0.85;;;;;;;-1.73;73.77;100886.88;4933183;28;20035;-75
2022/01/06 07:33:42;;;;;;;0.80;0.55;;;;;;;-1.70;73.62;100889.16;4954174;28;20369;-75
2022/01/06 07:36:07;;;;;;;1.55;0.80;;;;;;;-1.69;73.66;100893.47;4952700;28;20037;-75
2022/01/06 07:38:33;;;;;;;1.55;0.90;;;;;;;-1.69;73.84;100901.50;4934898;29;20094;-75
2022/01/06 07:40:58;;;;;;;4.03;0.63;;;;;;;-1.71;73.76;100906.22;4951980;28;20031;-75
2022/01/06 07:43:24;;;;;;;1.38;0.85;;;;;;;-1.71;73.83;100904.38;4950216;28;20086;-76
2022/01/06 07:45:49;;;;;;;2.22;0.55;;;;;;;-1.71;74.19;100912.41;4935856;29;20031;-75
2022/01/06 07:48:17;;;;;;;6.85;0.85;;;;;;;-1.71;74.09;100916.91;4935384;29;20168;-75
2022/01/06 07:50:44;;;;;;;2.35;0.63;;;;;;;-1.71;73.97;100911.56;4939350;28;20496;-76
2022/01/06 07:53:09;;;;;;;1.63;1.38;;;;;;;-1.71;74.27;100917.75;4914231;29;20027;-75
2022/01/06 07:55:34;;;;;;;3.10;0.70;;;;;;;-1.70;73.86;100919.38;4953389;28;20065;-75
2022/01/06 07:58:00;;;;;;;2.17;0.68;;;;;;;-1.69;74.03;100925.56;4934740;29;20042;-76
2022/01/06 08:00:26;;;;;;;1.13;0.57;;;;;;;-1.70;74.18;100930.06;4953184;28;20121;-76
2022/01/06 08:02:51;;;;;;;0.93;0.70;;;;;;;-1.73;74.01;100930.47;4932037;29;20472;-75
2022/01/06 08:05:19;;;;;;;1.63;0.60;;;;;;;-1.77;73.73;100920.31;4951638;28;20027;-76
2022/01/06 08:07:44;;;;;;;3.72;1.02;;;;;;;-1.76;74.23;100927.34;4929858;28;20028;-75
2022/01/06 08:10:10;;;;;;;2.33;0.75;;;;;;;-1.77;74.46;100931.00;4935481;29;20027;-76
2022/01/06 08:12:35;;;;;;;2.10;0.80;;;;;;;-1.80;74.58;100927.72;4951909;28;20054;-76
2022/01/06 08:15:01;;;;;;;3.03;0.80;;;;;;;-1.78;74.48;100930.19;4934146;29;20402;-76
2022/01/06 08:17:26;;;;;;;1.00;0.60;;;;;;;-1.81;74.36;100935.91;4916941;29;20066;-76
2022/01/06 08:19:52;;;;;;;4.22;0.85;;;;;;;-1.82;74.59;100943.13;4948391;29;20368;-75
2022/01/06 08:22:18;;;;;;;1.98;0.80;;;;;;;-1.82;74.49;100947.66;4948855;28;20047;-76
2022/01/06 08:24:44;;;;;;;1.70;0.70;;;;;;;-1.83;74.65;100948.63;4935253;28;20105;-76
2022/01/06 08:27:09;;;;;;;1.73;0.68;;;;;;;-1.80;74.73;100945.63;4950735;29;20031;-76
2022/01/06 08:29:38;;;;;;;0.95;0.50;;;;;;;-1.77;74.78;100947.06;4950594;28;20027;-75
2022/01/06 08:32:03;;;;;;;1.95;1.00;;;;;;;-1.75;74.64;100953.88;4934127;29;20031;-76
2022/01/06 08:34:29;;;;;;;0.88;0.70;;;;;;;-1.71;74.53;100946.31;4946766;28;20037;-76
2022/01/06 08:36:54;;;;;;;3.97;0.75;;;;;;;-1.64;74.87;100953.41;4934616;29;20028;-74
2022/01/06 08:39:20;;;;;;;5.35;0.88;;;;;;;-1.57;74.68;100956.13;4951422;28;20034;-74
2022/01/06 08:41:46;;;;;;;4.35;0.75;;;;;;;-1.52;74.68;100953.72;4930732;28;20549;-75
2022/01/06 08:44:11;;;;;;;1.83;0.70;;;;;;;-1.47;74.76;100955.84;4936142;29;20042;-75
2022/01/06 08:46:37;;;;;;;1.95;0.85;;;;;;;-1.43;74.84;100951.75;4951763;28;20043;-75
2022/01/06 08:49:04;;;;;;;1.48;0.80;;;;;;;-1.38;74.59;100954.69;4953181;28;20393;-75
2022/01/06 08:51:29;;;;;;;3.22;0.70;;;;;;;-1.31;74.66;100960.94;4951269;28;20034;-74
2022/01/06 08:53:54;;;;;;;2.35;0.85;;;;;;;-1.24;74.72;100960.97;4951722;28;20034;-75
2022/01/06 08:56:20;;;;;;;2.65;1.17;;;;;;;-1.22;74.56;100957.09;4959771;28;20042;-76
2022/01/06 08:58:45;;;;;;;4.18;0.90;;;;;;;-1.20;74.70;100956.88;4951079;28;20568;-74
2022/01/06 09:01:12;;;;;;;1.55;0.98;;;;;;;-1.18;74.49;100965.56;4949916;28;20031;-75
2022/01/06 09:03:37;;;;;;;2.35;0.68;;;;;;;-1.17;74.57;100957.34;4934963;28;20102;-75
2022/01/06 09:06:03;;;;;;;0.77;0.50;;;;;;;-1.17;74.56;100962.69;4949775;28;20027;-74
2022/01/06 09:08:28;;;;;;;4.20;1.00;;;;;;;-1.16;74.50;100963.53;4935739;29;20034;-75
2022/01/06 09:10:53;;;;;;;3.17;0.90;;;;;;;-1.16;74.48;100960.84;4930387;29;20032;-74
2022/01/06 09:13:19;;;;;;;4.13;1.17;;;;;;;-1.14;74.45;100961.50;4927677;29;20495;-75
2022/01/06 09:15:44;;;;;;;1.95;0.63;;;;;;;-1.12;74.46;100970.13;4936494;29;20031;-77
2022/01/06 09:18:09;;;;;;;7.13;4.20;;;;;;;-1.13;74.39;100963.13;4953021;28;20057;-74
2022/01/06 09:20:35;;;;;;;3.42;1.70;;;;;;;-1.13;74.42;100965.81;4949696;28;20027;-75
2022/01/06 09:23:00;;;;;;;1.55;1.05;;;;;;;-1.13;74.26;100960.47;4950538;28;20043;-74
2022/01/06 09:25:26;;;;;;;1.83;1.17;;;;;;;-1.14;74.48;100964.97;4952736;29;20519;-75
2022/01/06 09:27:51;;;;;;;7.13;4.53;;;;;;;-1.13;74.28;100965.81;4935934;28;20029;-75
2022/01/06 09:30:18;;;;;;;1.55;1.40;;;;;;;-1.10;74.28;100965.41;4933528;29;20077;-75
2022/01/06 09:32:44;;;;;;;4.65;1.33;;;;;;;-1.07;74.34;100973.06;4953918;29;20496;-75
2022/01/06 09:35:09;;;;;;;2.25;1.30;;;;;;;-1.03;73.91;100974.34;4931546;29;20035;-76
2022/01/06 09:37:34;;;;;;;3.15;1.92;;;;;;;-1.00;74.18;100979.31;4952458;28;20067;-75
2022/01/06 09:40:00;;;;;;;5.60;1.90;;;;;;;-1.00;74.11;100979.31;4946947;28;20035;-75
2022/01/06 09:42:26;;;;;;;5.63;2.10;;;;;;;-0.99;73.83;100980.94;4954283;28;20024;-74
2022/01/06 09:44:51;;;;;;;3.22;1.63;;;;;;;-0.98;73.97;100976.44;4927758;28;20485;-73
2022/01/06 09:47:17;;;;;;;1.73;1.35;;;;;;;-0.97;73.98;100976.25;4953834;28;20035;-74
2022/01/06 09:49:44;;;;;;;3.22;1.50;;;;;;;-0.96;73.77;100979.75;4953874;28;20036;-73
2022/01/06 09:52:09;;;;;;;1.98;1.35;;;;;;;-0.95;74.05;100987.59;4938026;29;20019;-73
2022/01/06 09:54:35;;;;;;;2.40;0.90;;;;;;;-0.93;73.72;100988.22;4913399;29;20385;-73
2022/01/06 09:57:01;;;;;;;2.03;0.90;;;;;;;-0.90;73.91;100989.69;4936232;28;20035;-73
2022/01/06 09:59:26;;;;;;;3.65;1.30;;;;;;;-0.88;73.81;100992.97;4953149;28;20493;-73
2022/01/06 10:01:52;;;;;;;2.28;1.05;;;;;;;-0.86;73.57;100990.13;4950480;28;20027;-73
2022/01/06 10:04:18;;;;;;;2.63;0.93;;;;;;;-0.84;73.51;100996.13;4935388;29;20353;-74
2022/01/06 10:06:44;;;;;;;3.20;1.27;;;;;;;-0.80;73.64;100989.34;4937173;29;20070;-73
2022/01/06 10:09:09;;;;;;;4.40;1.20;;;;;;;-0.77;73.77;101002.34;4922160;28;20477;-73
2022/01/06 10:11:35;;;;;;;2.08;1.10;;;;;;;-0.73;73.95;100992.91;4919518;29;20499;-73
2022/01/06 10:14:08;;;;;;;1.83;0.98;;;;;;;-0.71;73.73;100993.53;4936709;29;20110;-73
2022/01/06 10:16:34;;;;;;;3.38;1.77;;;;;;;-0.70;73.68;100989.84;4934064;29;20487;-73
2022/01/06 10:19:02;;;;;;;1.95;1.60;;;;;;;-0.71;73.62;100988.16;4941719;28;20109;-73
2022/01/06 10:21:44;;;;;;;3.10;0.88;;;;;;;-0.72;73.60;100991.88;4920497;29;20035;-74
2022/01/06 10:24:14;;;;;;;1.67;0.80;;;;;;;-0.72;73.50;100986.53;4930681;29;20043;-74
2022/01/06 10:26:56;;;;;;;2.55;0.82;;;;;;;-0.71;73.52;100994.38;4950731;28;20031;-74
2022/01/06 10:29:22;;;;;;;;;;;;;;;-0.67;73.49;101002.84;4951072;28;20039;-74
2022/01/06 10:31:47;;;;;;;2.03;1.10;;;;;;;-0.64;73.58;100999.75;4929447;29;19914;-75
2022/01/06 10:34:13;;;;;;;1.65;0.60;;;;;;;-0.63;73.36;101006.75;4936363;29;20027;-74
2022/01/06 10:36:39;;;;;;;1.73;0.73;;;;;;;-0.61;73.68;101010.09;4939825;28;20543;-74
2022/01/06 10:39:08;;;;;;;2.03;1.02;;;;;;;-0.60;73.80;101017.13;4954718;28;20035;-75
2022/01/06 10:41:34;;;;;;;1.83;1.05;;;;;;;-0.56;73.57;101018.38;4936034;28;20035;-74
2022/01/06 10:43:59;;;;;;;2.55;0.82;;;;;;;-0.53;73.69;101022.50;4937483;29;20085;-74
2022/01/06 10:46:33;;;;;;;4.05;0.70;;;;;;;-0.53;73.45;101022.50;4937597;29;20023;-74
2022/01/06 10:48:59;;;;;;;2.05;0.70;;;;;;;-0.52;73.59;101019.66;4916906;29;20508;-74
2022/01/06 10:51:36;;;;;;;1.48;0.77;;;;;;;-0.49;74.10;101018.44;4921198;29;20031;-74
2022/01/06 10:54:02;;;;;;;1.58;0.73;;;;;;;-0.42;73.57;101023.81;4920350;29;20027;-75
2022/01/06 10:56:28;;;;;;;2.08;0.55;;;;;;;-0.38;73.84;101027.75;4933736;28;20038;-74
2022/01/06 10:58:58;;;;;;;0.90;0.60;;;;;;;-0.37;74.11;101027.56;4953172;28;20464;-74
2022/01/06 11:01:23;;;;;;;0.90;0.68;;;;;;;-0.34;73.82;101026.34;4956704;28;20038;-75
2022/01/06 11:03:49;;;;;;;1.27;0.70;;;;;;;-0.34;74.11;101032.53;4952835;28;20027;-74
2022/01/06 11:06:14;;;;;;;1.25;0.60;;;;;;;-0.33;74.08;101033.34;4951063;28;20031;-74
2022/01/06 11:08:41;;;;;;;6.63;2.17;;;;;;;-0.33;73.92;101034.19;4933249;29;20082;-74
2022/01/06 11:13:35;;;;;;;3.35;1.00;;;;;;;-0.26;73.87;101028.88;4936451;29;20031;-74
2022/01/06 11:16:01;;;;;;;1.25;1.08;;;;;;;-0.23;74.02;101033.84;4950352;28;20389;-74
2022/01/06 11:18:26;;;;;;;3.10;1.20;;;;;;;-0.20;74.18;101029.94;4919144;29;20035;-74
2022/01/06 11:20:52;;;;;;;5.43;2.10;;;;;;;-0.20;73.78;101036.13;4925971;29;20238;-74
2022/01/06 11:23:23;;;;;;;2.50;1.20;;;;;;;-0.19;74.12;101029.75;4921032;29;20035;-74
2022/01/06 11:26:06;;;;;;;4.45;1.55;;;;;;;-0.17;73.94;101034.91;4919812;29;20023;-75
2022/01/06 11:28:32;;;;;;;2.33;0.95;;;;;;;-0.14;74.26;101035.31;4937214;29;20078;-75
2022/01/06 11:31:11;;;;;;;1.08;0.68;;;;;;;-0.12;74.10;101041.31;4952599;28;20043;-75